sensor_id;sensor_type;location;lat;lon;timestamp;pressure;altitude;pressure_sealevel;temperature
12875;BMP180;6505;51.114;13.128;2022-11-18T00:01:29;97848.00;;;13.30
12875;BMP180;6505;51.114;13.128;2022-11-18T00:03:57;97847.00;;;13.30
12875;BMP180;6505;51.114;13.128;2022-11-18T00:06:27;97850.00;;;13.30
12875;BMP180;6505;51.114;13.128;2022-11-18T00:08:58;97854.00;;;13.30
12875;BMP180;6505;51.114;13.128;2022-11-18T00:11:28;97838.00;;;13.30
12875;BMP180;6505;51.114;13.128;2022-11-18T00:14:17;97851.00;;;13.30
12875;BMP180;6505;51.114;13.128;2022-11-18T00:16:50;97859.00;;;13.30
12875;BMP180;6505;51.114;13.128;2022-11-18T00:19:22;97862.00;;;13.30
12875;BMP180;6505;51.114;13.128;2022-11-18T00:21:51;97861.00;;;13.30
12875;BMP180;6505;51.114;13.128;2022-11-18T00:24:21;97855.00;;;13.30
12875;BMP180;6505;51.114;13.128;2022-11-18T00:26:51;97861.00;;;13.30
12875;BMP180;6505;51.114;13.128;2022-11-18T00:29:21;97866.00;;;13.30
12875;BMP180;6505;51.114;13.128;2022-11-18T00:31:52;97864.00;;;13.30
12875;BMP180;6505;51.114;13.128;2022-11-18T00:34:21;97864.00;;;13.30
12875;BMP180;6505;51.114;13.128;2022-11-18T00:36:49;97866.00;;;13.30
12875;BMP180;6505;51.114;13.128;2022-11-18T00:39:19;97865.00;;;13.30
12875;BMP180;6505;51.114;13.128;2022-11-18T00:41:49;97855.00;;;13.30
12875;BMP180;6505;51.114;13.128;2022-11-18T00:44:35;97861.00;;;13.30
12875;BMP180;6505;51.114;13.128;2022-11-18T00:47:04;97853.00;;;13.20
12875;BMP180;6505;51.114;13.128;2022-11-18T00:49:33;97863.00;;;13.30
12875;BMP180;6505;51.114;13.128;2022-11-18T00:52:01;97861.00;;;13.30
12875;BMP180;6505;51.114;13.128;2022-11-18T00:54:31;97861.00;;;13.10
12875;BMP180;6505;51.114;13.128;2022-11-18T00:57:01;97872.00;;;13.30
12875;BMP180;6505;51.114;13.128;2022-11-18T00:59:31;97867.00;;;13.30
12875;BMP180;6505;51.114;13.128;2022-11-18T01:01:59;97864.00;;;13.30
12875;BMP180;6505;51.114;13.128;2022-11-18T01:04:27;97873.00;;;13.30
12875;BMP180;6505;51.114;13.128;2022-11-18T01:06:55;97881.00;;;13.30
12875;BMP180;6505;51.114;13.128;2022-11-18T01:09:23;97870.00;;;13.30
12875;BMP180;6505;51.114;13.128;2022-11-18T01:15:39;97861.00;;;13.30
12875;BMP180;6505;51.114;13.128;2022-11-18T01:18:08;97867.00;;;13.30
12875;BMP180;6505;51.114;13.128;2022-11-18T01:20:37;97864.00;;;13.30
12875;BMP180;6505;51.114;13.128;2022-11-18T01:23:05;97864.00;;;13.30
12875;BMP180;6505;51.114;13.128;2022-11-18T01:25:35;97860.00;;;13.30
12875;BMP180;6505;51.114;13.128;2022-11-18T01:28:04;97866.00;;;13.30
12875;BMP180;6505;51.114;13.128;2022-11-18T01:30:33;97864.00;;;13.30
12875;BMP180;6505;51.114;13.128;2022-11-18T01:33:04;97864.00;;;13.30
12875;BMP180;6505;51.114;13.128;2022-11-18T01:35:34;97860.00;;;13.30
12875;BMP180;6505;51.114;13.128;2022-11-18T01:38:02;97860.00;;;13.40
12875;BMP180;6505;51.114;13.128;2022-11-18T01:40:32;97868.00;;;13.30
12875;BMP180;6505;51.114;13.128;2022-11-18T01:43:00;97868.00;;;13.40
12875;BMP180;6505;51.114;13.128;2022-11-18T01:45:33;97862.00;;;13.40
12875;BMP180;6505;51.114;13.128;2022-11-18T01:48:07;97856.00;;;13.30
12875;BMP180;6505;51.114;13.128;2022-11-18T01:50:40;97852.00;;;13.40
12875;BMP180;6505;51.114;13.128;2022-11-18T01:53:15;97857.00;;;13.30
12875;BMP180;6505;51.114;13.128;2022-11-18T01:55:47;97846.00;;;13.30
12875;BMP180;6505;51.114;13.128;2022-11-18T01:58:22;97844.00;;;13.30
12875;BMP180;6505;51.114;13.128;2022-11-18T02:00:51;97850.00;;;13.40
12875;BMP180;6505;51.114;13.128;2022-11-18T02:03:21;97854.00;;;13.40
12875;BMP180;6505;51.114;13.128;2022-11-18T02:05:52;97856.00;;;13.40
12875;BMP180;6505;51.114;13.128;2022-11-18T02:08:22;97858.00;;;13.40
12875;BMP180;6505;51.114;13.128;2022-11-18T02:10:50;97859.00;;;13.40
12875;BMP180;6505;51.114;13.128;2022-11-18T02:13:18;97861.00;;;13.40
12875;BMP180;6505;51.114;13.128;2022-11-18T02:15:55;97858.00;;;13.40
12875;BMP180;6505;51.114;13.128;2022-11-18T02:18:38;97861.00;;;13.40
12875;BMP180;6505;51.114;13.128;2022-11-18T02:21:20;97865.00;;;13.30
12875;BMP180;6505;51.114;13.128;2022-11-18T02:24:26;97867.00;;;13.30
12875;BMP180;6505;51.114;13.128;2022-11-18T02:30:16;97862.00;;;13.30
12875;BMP180;6505;51.114;13.128;2022-11-18T02:32:52;97852.00;;;13.30
12875;BMP180;6505;51.114;13.128;2022-11-18T02:35:27;97858.00;;;13.30
12875;BMP180;6505;51.114;13.128;2022-11-18T02:38:02;97847.00;;;13.30
12875;BMP180;6505;51.114;13.128;2022-11-18T02:40:36;97855.00;;;13.30
12875;BMP180;6505;51.114;13.128;2022-11-18T02:43:09;97852.00;;;13.30
12875;BMP180;6505;51.114;13.128;2022-11-18T02:45:46;97849.00;;;13.40
12875;BMP180;6505;51.114;13.128;2022-11-18T02:48:18;97846.00;;;13.40
12875;BMP180;6505;51.114;13.128;2022-11-18T02:50:50;97845.00;;;13.40
12875;BMP180;6505;51.114;13.128;2022-11-18T02:53:20;97850.00;;;13.40
12875;BMP180;6505;51.114;13.128;2022-11-18T02:55:52;97844.00;;;13.40
12875;BMP180;6505;51.114;13.128;2022-11-18T02:58:22;97853.00;;;13.40
12875;BMP180;6505;51.114;13.128;2022-11-18T03:00:54;97866.00;;;13.40
12875;BMP180;6505;51.114;13.128;2022-11-18T03:03:28;97863.00;;;13.40
12875;BMP180;6505;51.114;13.128;2022-11-18T03:06:06;97856.00;;;13.40
12875;BMP180;6505;51.114;13.128;2022-11-18T03:08:41;97851.00;;;13.40
12875;BMP180;6505;51.114;13.128;2022-11-18T03:11:18;97851.00;;;13.40
12875;BMP180;6505;51.114;13.128;2022-11-18T03:14:05;97849.00;;;13.40
12875;BMP180;6505;51.114;13.128;2022-11-18T03:16:41;97850.00;;;13.40
12875;BMP180;6505;51.114;13.128;2022-11-18T03:19:19;97863.00;;;13.40
12875;BMP180;6505;51.114;13.128;2022-11-18T03:21:59;97865.00;;;13.40
12875;BMP180;6505;51.114;13.128;2022-11-18T03:24:32;97862.00;;;13.40
12875;BMP180;6505;51.114;13.128;2022-11-18T03:27:07;97860.00;;;13.40
12875;BMP180;6505;51.114;13.128;2022-11-18T03:29:44;97859.00;;;13.40
12875;BMP180;6505;51.114;13.128;2022-11-18T03:32:21;97858.00;;;13.40
12875;BMP180;6505;51.114;13.128;2022-11-18T03:34:54;97862.00;;;13.40
12875;BMP180;6505;51.114;13.128;2022-11-18T03:37:26;97866.00;;;13.40
12875;BMP180;6505;51.114;13.128;2022-11-18T03:40:02;97867.00;;;13.40
12875;BMP180;6505;51.114;13.128;2022-11-18T03:42:37;97877.00;;;13.40
12875;BMP180;6505;51.114;13.128;2022-11-18T03:45:13;97877.00;;;13.40
12875;BMP180;6505;51.114;13.128;2022-11-18T03:47:50;97871.00;;;13.40
12875;BMP180;6505;51.114;13.128;2022-11-18T03:50:25;97878.00;;;13.40
12875;BMP180;6505;51.114;13.128;2022-11-18T03:52:55;97884.00;;;13.40
12875;BMP180;6505;51.114;13.128;2022-11-18T03:55:28;97892.00;;;13.40
12875;BMP180;6505;51.114;13.128;2022-11-18T03:58:04;97901.00;;;13.40
12875;BMP180;6505;51.114;13.128;2022-11-18T04:00:40;97897.00;;;13.40
12875;BMP180;6505;51.114;13.128;2022-11-18T04:03:11;97904.00;;;13.40
12875;BMP180;6505;51.114;13.128;2022-11-18T04:05:42;97910.00;;;13.40
12875;BMP180;6505;51.114;13.128;2022-11-18T04:08:17;97907.00;;;13.40
12875;BMP180;6505;51.114;13.128;2022-11-18T04:10:58;97916.00;;;13.40
12875;BMP180;6505;51.114;13.128;2022-11-18T04:13:33;97911.00;;;13.40
12875;BMP180;6505;51.114;13.128;2022-11-18T04:16:02;97916.00;;;13.40
12875;BMP180;6505;51.114;13.128;2022-11-18T04:18:32;97918.00;;;13.40
12875;BMP180;6505;51.114;13.128;2022-11-18T04:21:00;97922.00;;;13.40
12875;BMP180;6505;51.114;13.128;2022-11-18T04:23:28;97923.00;;;13.40
12875;BMP180;6505;51.114;13.128;2022-11-18T04:25:56;97920.00;;;13.40
12875;BMP180;6505;51.114;13.128;2022-11-18T04:28:24;97929.00;;;13.40
12875;BMP180;6505;51.114;13.128;2022-11-18T04:30:52;97929.00;;;13.40
12875;BMP180;6505;51.114;13.128;2022-11-18T04:33:20;97926.00;;;13.40
12875;BMP180;6505;51.114;13.128;2022-11-18T04:35:49;97924.00;;;13.40
12875;BMP180;6505;51.114;13.128;2022-11-18T04:38:17;97933.00;;;13.40
12875;BMP180;6505;51.114;13.128;2022-11-18T04:40:48;97929.00;;;13.40
12875;BMP180;6505;51.114;13.128;2022-11-18T04:43:16;97935.00;;;13.40
12875;BMP180;6505;51.114;13.128;2022-11-18T04:45:44;97931.00;;;13.40
12875;BMP180;6505;51.114;13.128;2022-11-18T04:48:12;97932.00;;;13.40
12875;BMP180;6505;51.114;13.128;2022-11-18T04:50:40;97936.00;;;13.40
12875;BMP180;6505;51.114;13.128;2022-11-18T04:53:09;97927.00;;;13.30
12875;BMP180;6505;51.114;13.128;2022-11-18T04:55:37;97933.00;;;13.30
12875;BMP180;6505;51.114;13.128;2022-11-18T04:58:05;97933.00;;;13.30
12875;BMP180;6505;51.114;13.128;2022-11-18T05:00:33;97926.00;;;13.30
12875;BMP180;6505;51.114;13.128;2022-11-18T05:03:01;97931.00;;;13.30
12875;BMP180;6505;51.114;13.128;2022-11-18T05:05:29;97938.00;;;13.30
12875;BMP180;6505;51.114;13.128;2022-11-18T05:07:57;97941.00;;;13.30
12875;BMP180;6505;51.114;13.128;2022-11-18T05:10:27;97955.00;;;13.30
12875;BMP180;6505;51.114;13.128;2022-11-18T05:12:55;97949.00;;;13.30
12875;BMP180;6505;51.114;13.128;2022-11-18T05:15:22;97941.00;;;13.20
12875;BMP180;6505;51.114;13.128;2022-11-18T05:17:50;97950.00;;;13.20
12875;BMP180;6505;51.114;13.128;2022-11-18T05:20:18;97957.00;;;13.20
12875;BMP180;6505;51.114;13.128;2022-11-18T05:22:47;97963.00;;;13.20
12875;BMP180;6505;51.114;13.128;2022-11-18T05:25:15;97962.00;;;13.20
12875;BMP180;6505;51.114;13.128;2022-11-18T05:27:44;97960.00;;;13.10
12875;BMP180;6505;51.114;13.128;2022-11-18T05:30:13;97964.00;;;13.10
12875;BMP180;6505;51.114;13.128;2022-11-18T05:32:41;97963.00;;;13.10
12875;BMP180;6505;51.114;13.128;2022-11-18T05:35:09;97962.00;;;13.10
12875;BMP180;6505;51.114;13.128;2022-11-18T05:37:37;97966.00;;;13.10
12875;BMP180;6505;51.114;13.128;2022-11-18T05:40:07;97977.00;;;13.00
12875;BMP180;6505;51.114;13.128;2022-11-18T05:42:35;97976.00;;;13.00
12875;BMP180;6505;51.114;13.128;2022-11-18T05:45:22;97988.00;;;13.00
12875;BMP180;6505;51.114;13.128;2022-11-18T05:47:50;97984.00;;;13.00
12875;BMP180;6505;51.114;13.128;2022-11-18T05:50:30;97995.00;;;13.00
12875;BMP180;6505;51.114;13.128;2022-11-18T05:52:59;97996.00;;;13.00
12875;BMP180;6505;51.114;13.128;2022-11-18T05:55:34;98001.00;;;12.90
12875;BMP180;6505;51.114;13.128;2022-11-18T05:58:04;98003.00;;;12.90
12875;BMP180;6505;51.114;13.128;2022-11-18T06:00:33;98002.00;;;12.90
12875;BMP180;6505;51.114;13.128;2022-11-18T06:03:06;98010.00;;;12.90
12875;BMP180;6505;51.114;13.128;2022-11-18T06:05:36;98009.00;;;12.90
12875;BMP180;6505;51.114;13.128;2022-11-18T06:08:05;98021.00;;;12.90
12875;BMP180;6505;51.114;13.128;2022-11-18T06:10:37;98014.00;;;12.90
12875;BMP180;6505;51.114;13.128;2022-11-18T06:13:15;98003.00;;;12.80
12875;BMP180;6505;51.114;13.128;2022-11-18T06:15:46;98022.00;;;12.80
12875;BMP180;6505;51.114;13.128;2022-11-18T06:18:21;98023.00;;;12.80
12875;BMP180;6505;51.114;13.128;2022-11-18T06:20:54;98028.00;;;12.80
12875;BMP180;6505;51.114;13.128;2022-11-18T06:23:23;98023.00;;;12.80
12875;BMP180;6505;51.114;13.128;2022-11-18T06:25:51;98017.00;;;12.80
12875;BMP180;6505;51.114;13.128;2022-11-18T06:28:21;98011.00;;;12.70
12875;BMP180;6505;51.114;13.128;2022-11-18T06:30:51;98023.00;;;12.70
12875;BMP180;6505;51.114;13.128;2022-11-18T06:33:19;98028.00;;;12.70
12875;BMP180;6505;51.114;13.128;2022-11-18T06:35:47;98030.00;;;12.70
12875;BMP180;6505;51.114;13.128;2022-11-18T06:38:15;98028.00;;;12.70
12875;BMP180;6505;51.114;13.128;2022-11-18T06:40:43;98031.00;;;12.70
12875;BMP180;6505;51.114;13.128;2022-11-18T06:43:12;98031.00;;;12.70
12875;BMP180;6505;51.114;13.128;2022-11-18T06:45:59;98047.00;;;12.70
12875;BMP180;6505;51.114;13.128;2022-11-18T06:48:45;98046.00;;;12.70
12875;BMP180;6505;51.114;13.128;2022-11-18T06:51:14;98051.00;;;12.60
12875;BMP180;6505;51.114;13.128;2022-11-18T06:53:42;98049.00;;;12.60
12875;BMP180;6505;51.114;13.128;2022-11-18T06:56:12;98049.00;;;12.60
12875;BMP180;6505;51.114;13.128;2022-11-18T06:58:41;98063.00;;;12.60
12875;BMP180;6505;51.114;13.128;2022-11-18T07:01:13;98063.00;;;12.60
12875;BMP180;6505;51.114;13.128;2022-11-18T07:03:43;98060.00;;;12.60
12875;BMP180;6505;51.114;13.128;2022-11-18T07:06:13;98066.00;;;12.60
12875;BMP180;6505;51.114;13.128;2022-11-18T07:08:42;98066.00;;;12.50
12875;BMP180;6505;51.114;13.128;2022-11-18T07:11:13;98063.00;;;12.50
12875;BMP180;6505;51.114;13.128;2022-11-18T07:13:41;98074.00;;;12.50
12875;BMP180;6505;51.114;13.128;2022-11-18T07:16:14;98067.00;;;12.50
12875;BMP180;6505;51.114;13.128;2022-11-18T07:18:44;98081.00;;;12.40
12875;BMP180;6505;51.114;13.128;2022-11-18T07:21:15;98082.00;;;12.40
12875;BMP180;6505;51.114;13.128;2022-11-18T07:23:44;98091.00;;;12.40
12875;BMP180;6505;51.114;13.128;2022-11-18T07:26:13;98086.00;;;12.40
12875;BMP180;6505;51.114;13.128;2022-11-18T07:28:42;98082.00;;;12.40
12875;BMP180;6505;51.114;13.128;2022-11-18T07:31:14;98100.00;;;12.40
12875;BMP180;6505;51.114;13.128;2022-11-18T07:33:43;98099.00;;;12.40
12875;BMP180;6505;51.114;13.128;2022-11-18T07:36:14;98106.00;;;12.30
12875;BMP180;6505;51.114;13.128;2022-11-18T07:38:43;98095.00;;;12.30
12875;BMP180;6505;51.114;13.128;2022-11-18T07:41:14;98091.00;;;12.30
12875;BMP180;6505;51.114;13.128;2022-11-18T07:43:43;98085.00;;;12.30
12875;BMP180;6505;51.114;13.128;2022-11-18T07:46:16;98104.00;;;12.20
12875;BMP180;6505;51.114;13.128;2022-11-18T07:48:46;98120.00;;;12.20
12875;BMP180;6505;51.114;13.128;2022-11-18T07:51:16;98109.00;;;12.20
12875;BMP180;6505;51.114;13.128;2022-11-18T07:53:44;98101.00;;;12.20
12875;BMP180;6505;51.114;13.128;2022-11-18T07:56:13;98104.00;;;12.10
12875;BMP180;6505;51.114;13.128;2022-11-18T07:58:42;98119.00;;;12.10
12875;BMP180;6505;51.114;13.128;2022-11-18T08:01:15;98108.00;;;12.10
12875;BMP180;6505;51.114;13.128;2022-11-18T08:03:45;98114.00;;;12.00
12875;BMP180;6505;51.114;13.128;2022-11-18T08:06:15;98114.00;;;12.00
12875;BMP180;6505;51.114;13.128;2022-11-18T08:08:44;98129.00;;;12.00
12875;BMP180;6505;51.114;13.128;2022-11-18T08:11:15;98127.00;;;12.00
12875;BMP180;6505;51.114;13.128;2022-11-18T08:13:49;98128.00;;;12.00
12875;BMP180;6505;51.114;13.128;2022-11-18T08:16:22;98124.00;;;11.90
12875;BMP180;6505;51.114;13.128;2022-11-18T08:18:51;98132.00;;;11.90
12875;BMP180;6505;51.114;13.128;2022-11-18T08:21:21;98145.00;;;11.90
12875;BMP180;6505;51.114;13.128;2022-11-18T08:23:51;98120.00;;;11.90
12875;BMP180;6505;51.114;13.128;2022-11-18T08:26:20;98131.00;;;11.90
12875;BMP180;6505;51.114;13.128;2022-11-18T08:28:48;98141.00;;;11.90
12875;BMP180;6505;51.114;13.128;2022-11-18T08:31:20;98131.00;;;11.80
12875;BMP180;6505;51.114;13.128;2022-11-18T08:33:52;98142.00;;;11.80
12875;BMP180;6505;51.114;13.128;2022-11-18T08:36:24;98142.00;;;11.80
12875;BMP180;6505;51.114;13.128;2022-11-18T08:38:54;98154.00;;;11.80
12875;BMP180;6505;51.114;13.128;2022-11-18T08:41:30;98153.00;;;11.80
12875;BMP180;6505;51.114;13.128;2022-11-18T08:43:59;98145.00;;;11.80
12875;BMP180;6505;51.114;13.128;2022-11-18T08:46:29;98146.00;;;11.70
12875;BMP180;6505;51.114;13.128;2022-11-18T08:48:58;98156.00;;;11.70
12875;BMP180;6505;51.114;13.128;2022-11-18T08:51:26;98171.00;;;11.70
12875;BMP180;6505;51.114;13.128;2022-11-18T08:53:55;98163.00;;;11.70
12875;BMP180;6505;51.114;13.128;2022-11-18T08:56:24;98157.00;;;11.60
12875;BMP180;6505;51.114;13.128;2022-11-18T08:58:52;98164.00;;;11.60
12875;BMP180;6505;51.114;13.128;2022-11-18T09:01:21;98170.00;;;11.60
12875;BMP180;6505;51.114;13.128;2022-11-18T09:03:51;98170.00;;;11.50
12875;BMP180;6505;51.114;13.128;2022-11-18T09:06:21;98161.00;;;11.50
12875;BMP180;6505;51.114;13.128;2022-11-18T09:08:51;98153.00;;;11.50
12875;BMP180;6505;51.114;13.128;2022-11-18T09:11:21;98161.00;;;11.50
12875;BMP180;6505;51.114;13.128;2022-11-18T09:13:52;98169.00;;;11.40
12875;BMP180;6505;51.114;13.128;2022-11-18T09:16:40;98179.00;;;11.50
12875;BMP180;6505;51.114;13.128;2022-11-18T09:19:10;98180.00;;;11.40
12875;BMP180;6505;51.114;13.128;2022-11-18T09:21:58;98188.00;;;11.40
12875;BMP180;6505;51.114;13.128;2022-11-18T09:24:26;98193.00;;;11.40
12875;BMP180;6505;51.114;13.128;2022-11-18T09:26:54;98203.00;;;11.40
12875;BMP180;6505;51.114;13.128;2022-11-18T09:29:22;98208.00;;;11.40
12875;BMP180;6505;51.114;13.128;2022-11-18T09:31:52;98220.00;;;11.40
12875;BMP180;6505;51.114;13.128;2022-11-18T09:34:22;98222.00;;;11.30
12875;BMP180;6505;51.114;13.128;2022-11-18T09:36:50;98229.00;;;11.30
12875;BMP180;6505;51.114;13.128;2022-11-18T09:39:22;98225.00;;;11.30
12875;BMP180;6505;51.114;13.128;2022-11-18T09:42:00;98234.00;;;11.20
12875;BMP180;6505;51.114;13.128;2022-11-18T09:45:02;98226.00;;;11.10
12875;BMP180;6505;51.114;13.128;2022-11-18T09:47:39;98230.00;;;11.10
12875;BMP180;6505;51.114;13.128;2022-11-18T09:50:14;98226.00;;;11.10
12875;BMP180;6505;51.114;13.128;2022-11-18T09:53:14;98227.00;;;11.00
12875;BMP180;6505;51.114;13.128;2022-11-18T09:55:46;98227.00;;;11.00
12875;BMP180;6505;51.114;13.128;2022-11-18T09:58:20;98239.00;;;11.00
12875;BMP180;6505;51.114;13.128;2022-11-18T10:00:49;98238.00;;;11.00
12875;BMP180;6505;51.114;13.128;2022-11-18T10:03:28;98232.00;;;10.90
12875;BMP180;6505;51.114;13.128;2022-11-18T10:06:04;98244.00;;;10.90
12875;BMP180;6505;51.114;13.128;2022-11-18T10:08:44;98224.00;;;10.90
12875;BMP180;6505;51.114;13.128;2022-11-18T10:11:18;98240.00;;;10.80
12875;BMP180;6505;51.114;13.128;2022-11-18T10:13:58;98246.00;;;10.80
12875;BMP180;6505;51.114;13.128;2022-11-18T10:16:40;98241.00;;;10.80
12875;BMP180;6505;51.114;13.128;2022-11-18T10:19:25;98258.00;;;10.70
12875;BMP180;6505;51.114;13.128;2022-11-18T10:22:13;98263.00;;;10.70
12875;BMP180;6505;51.114;13.128;2022-11-18T10:24:53;98255.00;;;10.70
12875;BMP180;6505;51.114;13.128;2022-11-18T10:27:32;98263.00;;;10.70
12875;BMP180;6505;51.114;13.128;2022-11-18T10:30:00;98262.00;;;10.60
12875;BMP180;6505;51.114;13.128;2022-11-18T10:32:28;98273.00;;;10.60
12875;BMP180;6505;51.114;13.128;2022-11-18T10:34:57;98271.00;;;10.60
12875;BMP180;6505;51.114;13.128;2022-11-18T10:37:29;98281.00;;;10.50
12875;BMP180;6505;51.114;13.128;2022-11-18T10:40:26;98272.00;;;10.50
12875;BMP180;6505;51.114;13.128;2022-11-18T10:42:55;98286.00;;;10.50
12875;BMP180;6505;51.114;13.128;2022-11-18T10:45:27;98282.00;;;10.50
12875;BMP180;6505;51.114;13.128;2022-11-18T10:47:59;98292.00;;;10.50
12875;BMP180;6505;51.114;13.128;2022-11-18T10:50:32;98299.00;;;10.40
12875;BMP180;6505;51.114;13.128;2022-11-18T10:53:03;98308.00;;;10.40
12875;BMP180;6505;51.114;13.128;2022-11-18T10:55:32;98305.00;;;10.40
12875;BMP180;6505;51.114;13.128;2022-11-18T10:58:08;98309.00;;;10.40
12875;BMP180;6505;51.114;13.128;2022-11-18T11:00:43;98328.00;;;10.40
12875;BMP180;6505;51.114;13.128;2022-11-18T11:03:31;98324.00;;;10.40
12875;BMP180;6505;51.114;13.128;2022-11-18T11:06:26;98330.00;;;10.40
12875;BMP180;6505;51.114;13.128;2022-11-18T11:09:04;98324.00;;;10.30
12875;BMP180;6505;51.114;13.128;2022-11-18T11:11:34;98335.00;;;10.30
12875;BMP180;6505;51.114;13.128;2022-11-18T11:14:18;98332.00;;;10.30
12875;BMP180;6505;51.114;13.128;2022-11-18T11:16:59;98328.00;;;10.30
12875;BMP180;6505;51.114;13.128;2022-11-18T11:19:44;98333.00;;;10.30
12875;BMP180;6505;51.114;13.128;2022-11-18T11:22:15;98331.00;;;10.30
12875;BMP180;6505;51.114;13.128;2022-11-18T11:24:45;98324.00;;;10.30
12875;BMP180;6505;51.114;13.128;2022-11-18T11:27:32;98334.00;;;10.20
12875;BMP180;6505;51.114;13.128;2022-11-18T11:30:23;98344.00;;;10.20
12875;BMP180;6505;51.114;13.128;2022-11-18T11:33:31;98346.00;;;10.20
12875;BMP180;6505;51.114;13.128;2022-11-18T11:36:13;98335.00;;;10.20
12875;BMP180;6505;51.114;13.128;2022-11-18T11:38:58;98333.00;;;10.10
12875;BMP180;6505;51.114;13.128;2022-11-18T11:41:42;98338.00;;;10.10
12875;BMP180;6505;51.114;13.128;2022-11-18T11:44:33;98346.00;;;10.10
12875;BMP180;6505;51.114;13.128;2022-11-18T11:47:19;98341.00;;;10.10
12875;BMP180;6505;51.114;13.128;2022-11-18T11:50:17;98344.00;;;10.10
12875;BMP180;6505;51.114;13.128;2022-11-18T11:53:04;98349.00;;;10.10
12875;BMP180;6505;51.114;13.128;2022-11-18T11:55:50;98350.00;;;10.00
12875;BMP180;6505;51.114;13.128;2022-11-18T11:58:41;98350.00;;;10.00
12875;BMP180;6505;51.114;13.128;2022-11-18T12:01:25;98355.00;;;10.00
12875;BMP180;6505;51.114;13.128;2022-11-18T12:04:01;98355.00;;;10.00
12875;BMP180;6505;51.114;13.128;2022-11-18T12:06:32;98355.00;;;10.00
12875;BMP180;6505;51.114;13.128;2022-11-18T12:09:10;98357.00;;;10.00
12875;BMP180;6505;51.114;13.128;2022-11-18T12:11:46;98358.00;;;10.00
12875;BMP180;6505;51.114;13.128;2022-11-18T12:14:30;98364.00;;;9.90
12875;BMP180;6505;51.114;13.128;2022-11-18T12:17:14;98359.00;;;9.90
12875;BMP180;6505;51.114;13.128;2022-11-18T12:19:44;98371.00;;;10.00
12875;BMP180;6505;51.114;13.128;2022-11-18T12:22:12;98367.00;;;10.00
12875;BMP180;6505;51.114;13.128;2022-11-18T12:24:41;98372.00;;;9.90
12875;BMP180;6505;51.114;13.128;2022-11-18T12:27:13;98377.00;;;9.90
12875;BMP180;6505;51.114;13.128;2022-11-18T12:29:54;98384.00;;;9.90
12875;BMP180;6505;51.114;13.128;2022-11-18T12:32:30;98383.00;;;9.90
12875;BMP180;6505;51.114;13.128;2022-11-18T12:35:04;98392.00;;;9.90
12875;BMP180;6505;51.114;13.128;2022-11-18T12:37:59;98385.00;;;9.80
12875;BMP180;6505;51.114;13.128;2022-11-18T12:40:41;98389.00;;;9.80
12875;BMP180;6505;51.114;13.128;2022-11-18T12:44:05;98395.00;;;9.80
12875;BMP180;6505;51.114;13.128;2022-11-18T12:46:52;98396.00;;;9.80
12875;BMP180;6505;51.114;13.128;2022-11-18T12:50:10;98396.00;;;9.70
12875;BMP180;6505;51.114;13.128;2022-11-18T12:52:52;98400.00;;;9.70
12875;BMP180;6505;51.114;13.128;2022-11-18T12:55:29;98409.00;;;9.70
12875;BMP180;6505;51.114;13.128;2022-11-18T12:57:58;98402.00;;;9.70
12875;BMP180;6505;51.114;13.128;2022-11-18T13:00:33;98410.00;;;9.70
12875;BMP180;6505;51.114;13.128;2022-11-18T13:03:40;98421.00;;;9.70
12875;BMP180;6505;51.114;13.128;2022-11-18T13:06:23;98415.00;;;9.60
12875;BMP180;6505;51.114;13.128;2022-11-18T13:08:56;98417.00;;;9.60
12875;BMP180;6505;51.114;13.128;2022-11-18T13:11:28;98425.00;;;9.50
12875;BMP180;6505;51.114;13.128;2022-11-18T13:14:16;98418.00;;;9.50
12875;BMP180;6505;51.114;13.128;2022-11-18T13:17:22;98417.00;;;9.40
12875;BMP180;6505;51.114;13.128;2022-11-18T13:20:21;98429.00;;;9.30
12875;BMP180;6505;51.114;13.128;2022-11-18T13:22:51;98434.00;;;9.30
12875;BMP180;6505;51.114;13.128;2022-11-18T13:25:37;98439.00;;;9.30
12875;BMP180;6505;51.114;13.128;2022-11-18T13:28:20;98435.00;;;9.30
12875;BMP180;6505;51.114;13.128;2022-11-18T13:30:55;98444.00;;;9.30
12875;BMP180;6505;51.114;13.128;2022-11-18T13:33:26;98456.00;;;9.30
12875;BMP180;6505;51.114;13.128;2022-11-18T13:35:55;98453.00;;;9.30
12875;BMP180;6505;51.114;13.128;2022-11-18T13:38:24;98448.00;;;9.30
12875;BMP180;6505;51.114;13.128;2022-11-18T13:40:55;98466.00;;;9.30
12875;BMP180;6505;51.114;13.128;2022-11-18T13:43:34;98464.00;;;9.30
12875;BMP180;6505;51.114;13.128;2022-11-18T13:46:07;98470.00;;;9.30
12875;BMP180;6505;51.114;13.128;2022-11-18T13:48:46;98469.00;;;9.30
12875;BMP180;6505;51.114;13.128;2022-11-18T13:51:17;98478.00;;;9.30
12875;BMP180;6505;51.114;13.128;2022-11-18T13:53:46;98482.00;;;9.30
12875;BMP180;6505;51.114;13.128;2022-11-18T13:56:19;98492.00;;;9.30
12875;BMP180;6505;51.114;13.128;2022-11-18T13:58:53;98500.00;;;9.30
12875;BMP180;6505;51.114;13.128;2022-11-18T14:01:46;98490.00;;;9.30
12875;BMP180;6505;51.114;13.128;2022-11-18T14:04:22;98491.00;;;9.30
12875;BMP180;6505;51.114;13.128;2022-11-18T14:06:52;98487.00;;;9.30
12875;BMP180;6505;51.114;13.128;2022-11-18T14:09:25;98485.00;;;9.30
12875;BMP180;6505;51.114;13.128;2022-11-18T14:12:00;98494.00;;;9.30
12875;BMP180;6505;51.114;13.128;2022-11-18T14:14:31;98496.00;;;9.30
12875;BMP180;6505;51.114;13.128;2022-11-18T14:17:16;98492.00;;;9.20
12875;BMP180;6505;51.114;13.128;2022-11-18T14:19:45;98493.00;;;9.30
12875;BMP180;6505;51.114;13.128;2022-11-18T14:22:18;98504.00;;;9.20
12875;BMP180;6505;51.114;13.128;2022-11-18T14:24:54;98498.00;;;9.20
12875;BMP180;6505;51.114;13.128;2022-11-18T14:27:38;98508.00;;;9.10
12875;BMP180;6505;51.114;13.128;2022-11-18T14:30:33;98516.00;;;9.10
12875;BMP180;6505;51.114;13.128;2022-11-18T14:33:17;98518.00;;;9.10
12875;BMP180;6505;51.114;13.128;2022-11-18T14:35:53;98516.00;;;9.00
12875;BMP180;6505;51.114;13.128;2022-11-18T14:38:30;98528.00;;;9.00
12875;BMP180;6505;51.114;13.128;2022-11-18T14:41:20;98544.00;;;9.00
12875;BMP180;6505;51.114;13.128;2022-11-18T14:44:11;98540.00;;;8.90
12875;BMP180;6505;51.114;13.128;2022-11-18T14:46:42;98550.00;;;8.90
12875;BMP180;6505;51.114;13.128;2022-11-18T14:49:15;98553.00;;;8.90
12875;BMP180;6505;51.114;13.128;2022-11-18T14:51:44;98545.00;;;8.90
12875;BMP180;6505;51.114;13.128;2022-11-18T14:54:16;98543.00;;;8.90
12875;BMP180;6505;51.114;13.128;2022-11-18T14:56:55;98551.00;;;8.80
12875;BMP180;6505;51.114;13.128;2022-11-18T14:59:24;98568.00;;;8.80